createdAt,value
2022-08-21T00:01:34.660Z,1.00
2022-08-21T00:04:05.318Z,1.10
2022-08-21T00:06:32.070Z,0.60
2022-08-21T00:09:01.794Z,0.77
2022-08-21T00:11:30.806Z,0.70
2022-08-21T00:13:57.343Z,0.75
2022-08-21T00:16:24.011Z,1.33
2022-08-21T00:18:50.604Z,1.25
2022-08-21T00:21:17.619Z,0.60
2022-08-21T00:23:44.483Z,0.65
2022-08-21T00:26:11.416Z,1.35
2022-08-21T00:28:37.975Z,0.95
2022-08-21T00:31:05.023Z,0.60
2022-08-21T00:33:31.671Z,0.75
2022-08-21T00:35:58.323Z,1.20
2022-08-21T00:38:24.860Z,0.90
2022-08-21T00:40:54.471Z,1.27
2022-08-21T00:43:28.834Z,1.40
2022-08-21T00:45:56.379Z,1.30
2022-08-21T00:48:23.327Z,1.20
2022-08-21T00:50:53.043Z,0.80
2022-08-21T00:53:19.679Z,1.05
2022-08-21T00:55:47.096Z,0.60
2022-08-21T00:58:14.648Z,1.55
2022-08-21T01:00:45.097Z,1.00
2022-08-21T01:03:14.070Z,0.77
2022-08-21T01:05:40.826Z,0.82
2022-08-21T01:08:08.424Z,0.82
2022-08-21T01:10:36.271Z,2.00
2022-08-21T01:13:07.991Z,1.05
2022-08-21T01:15:35.713Z,1.10
2022-08-21T01:18:03.570Z,0.90
2022-08-21T01:20:32.438Z,0.80
2022-08-21T01:22:59.848Z,1.05
2022-08-21T01:25:26.474Z,0.60
2022-08-21T01:27:53.086Z,1.10
2022-08-21T01:30:23.098Z,1.20
2022-08-21T01:32:49.943Z,0.88
2022-08-21T01:35:17.254Z,1.33
2022-08-21T01:37:44.007Z,1.17
2022-08-21T01:40:11.679Z,0.90
2022-08-21T01:42:38.619Z,1.20
2022-08-21T01:45:06.691Z,0.70
2022-08-21T01:47:33.743Z,1.30
2022-08-21T01:50:00.407Z,1.00
2022-08-21T01:52:26.940Z,1.08
2022-08-21T01:54:55.017Z,1.00
2022-08-21T01:57:22.700Z,0.98
2022-08-21T01:59:53.223Z,0.85
2022-08-21T02:02:19.755Z,1.08
2022-08-21T02:04:46.429Z,1.25
2022-08-21T02:07:12.911Z,0.90
2022-08-21T02:09:40.126Z,0.85
2022-08-21T02:12:06.992Z,0.70
2022-08-21T02:14:33.511Z,0.82
2022-08-21T02:17:09.008Z,0.60
2022-08-21T02:19:40.229Z,0.70
2022-08-21T02:22:08.551Z,0.60
2022-08-21T02:24:35.332Z,0.60
2022-08-21T02:27:05.137Z,0.85
2022-08-21T02:29:31.999Z,0.93
2022-08-21T02:31:58.705Z,0.70
2022-08-21T02:34:29.334Z,1.20
2022-08-21T02:36:59.355Z,1.27
2022-08-21T02:39:27.414Z,0.57
2022-08-21T02:41:54.334Z,0.80
2022-08-21T02:44:21.024Z,1.05
2022-08-21T02:46:56.729Z,1.02
2022-08-21T02:49:23.294Z,0.70
2022-08-21T02:51:49.762Z,1.00
2022-08-21T02:54:16.318Z,1.17
2022-08-21T02:56:42.828Z,1.20
2022-08-21T02:59:09.312Z,0.77
2022-08-21T03:01:36.071Z,1.10
2022-08-21T03:04:02.618Z,1.10
2022-08-21T03:06:30.435Z,1.00
2022-08-21T03:08:57.602Z,1.10
2022-08-21T03:11:24.143Z,1.30
2022-08-21T03:13:50.619Z,0.63
2022-08-21T03:16:17.116Z,0.77
2022-08-21T03:18:43.616Z,1.05
2022-08-21T03:21:10.211Z,1.25
2022-08-21T03:23:36.806Z,0.90
2022-08-21T03:26:03.837Z,1.10
2022-08-21T03:28:30.407Z,0.90
2022-08-21T03:30:57.284Z,0.88
2022-08-21T03:33:24.167Z,0.70
2022-08-21T03:36:09.059Z,1.05
2022-08-21T03:38:36.168Z,0.93
2022-08-21T03:41:03.129Z,1.13
2022-08-21T03:43:32.048Z,1.40
2022-08-21T03:45:59.444Z,0.75
2022-08-21T03:48:26.146Z,0.90
2022-08-21T03:50:53.173Z,1.08
2022-08-21T03:53:19.751Z,1.10
2022-08-21T03:55:47.737Z,1.00
2022-08-21T03:58:16.507Z,0.80
2022-08-21T04:00:44.621Z,0.80
2022-08-21T04:03:11.147Z,1.15
2022-08-21T04:05:38.547Z,0.77
2022-08-21T04:08:06.509Z,1.00
2022-08-21T04:10:35.584Z,0.70
2022-08-21T04:13:02.087Z,1.02
2022-08-21T04:15:28.855Z,0.77
2022-08-21T04:17:55.866Z,1.30
2022-08-21T04:20:23.131Z,1.17
2022-08-21T04:22:51.686Z,0.85
2022-08-21T04:25:19.926Z,0.95
2022-08-21T04:27:46.856Z,0.95
2022-08-21T04:30:14.975Z,1.00
2022-08-21T04:32:45.698Z,0.60
2022-08-21T04:35:12.870Z,0.80
2022-08-21T04:37:42.100Z,1.08
2022-08-21T04:40:10.498Z,1.15
2022-08-21T04:42:42.710Z,0.57
2022-08-21T04:45:09.343Z,1.75
2022-08-21T04:47:52.013Z,0.85
2022-08-21T04:50:20.669Z,1.30
2022-08-21T04:52:47.730Z,0.93
2022-08-21T04:55:14.450Z,0.90
2022-08-21T04:57:48.982Z,0.70
2022-08-21T05:00:19.653Z,1.20
2022-08-21T05:02:48.713Z,0.98
2022-08-21T05:05:16.190Z,1.20
2022-08-21T05:07:44.410Z,1.00
2022-08-21T05:10:12.504Z,1.40
2022-08-21T05:12:39.621Z,0.65
2022-08-21T05:15:06.276Z,0.75
2022-08-21T05:17:33.556Z,1.38
2022-08-21T05:20:00.137Z,0.80
2022-08-21T05:22:26.700Z,1.02
2022-08-21T05:24:53.772Z,0.70
2022-08-21T05:27:20.586Z,0.68
2022-08-21T05:29:47.452Z,0.65
2022-08-21T05:32:14.385Z,1.00
2022-08-21T05:34:42.086Z,0.63
2022-08-21T05:37:10.990Z,0.63
2022-08-21T05:40:05.165Z,0.77
2022-08-21T05:42:24.428Z,0.77
2022-08-21T05:44:50.922Z,0.68
2022-08-21T05:47:17.536Z,0.50
2022-08-21T05:49:44.050Z,0.57
2022-08-21T05:52:10.607Z,0.68
2022-08-21T05:54:38.456Z,0.40
2022-08-21T05:57:04.986Z,0.95
2022-08-21T05:59:31.454Z,0.90
2022-08-21T06:02:00.303Z,0.98
2022-08-21T06:04:28.854Z,0.63
2022-08-21T06:06:55.559Z,1.08
2022-08-21T06:09:22.130Z,0.77
2022-08-21T06:11:48.594Z,0.90
2022-08-21T06:14:15.950Z,0.52
2022-08-21T06:16:42.479Z,0.70
2022-08-21T06:19:08.966Z,0.85
2022-08-21T06:21:35.786Z,0.52
2022-08-21T06:24:02.304Z,1.15
2022-08-21T06:26:30.225Z,0.93
2022-08-21T06:28:56.750Z,0.65
2022-08-21T06:31:24.729Z,1.58
2022-08-21T06:33:51.432Z,0.65
2022-08-21T06:36:18.046Z,0.70
2022-08-21T06:38:50.922Z,0.90
2022-08-21T06:41:18.607Z,1.17
2022-08-21T06:43:51.368Z,0.90
2022-08-21T06:46:17.822Z,0.80
2022-08-21T06:48:44.375Z,1.15
2022-08-21T06:51:10.964Z,0.93
2022-08-21T06:53:37.767Z,0.90
2022-08-21T06:56:04.391Z,0.95
2022-08-21T06:58:31.976Z,0.88
2022-08-21T07:01:01.072Z,1.48
2022-08-21T07:03:29.695Z,0.70
2022-08-21T07:05:57.855Z,0.90
2022-08-21T07:08:24.382Z,1.10
2022-08-21T07:10:51.341Z,0.98
2022-08-21T07:13:18.224Z,0.93
2022-08-21T07:15:45.775Z,0.95
2022-08-21T07:18:13.003Z,0.80
2022-08-21T07:20:40.217Z,1.30
2022-08-21T07:23:08.763Z,0.80
2022-08-21T07:25:35.467Z,0.65
2022-08-21T07:28:02.219Z,0.80
2022-08-21T07:30:28.832Z,0.70
2022-08-21T07:32:56.048Z,0.70
2022-08-21T07:35:23.478Z,1.02
2022-08-21T07:37:50.353Z,0.73
2022-08-21T07:40:18.383Z,0.85
2022-08-21T07:42:47.518Z,0.70
2022-08-21T07:45:14.234Z,0.88
2022-08-21T07:47:42.480Z,0.60
2022-08-21T07:50:10.212Z,0.70
2022-08-21T07:52:36.797Z,0.65
2022-08-21T07:55:06.414Z,0.80
2022-08-21T07:57:33.394Z,1.08
2022-08-21T07:59:59.971Z,0.68
2022-08-21T08:02:28.343Z,2.03
2022-08-21T08:04:55.031Z,1.10
2022-08-21T08:07:21.640Z,0.80
2022-08-21T08:09:48.427Z,0.68
2022-08-21T08:12:14.950Z,0.80
2022-08-21T08:14:41.427Z,0.80
2022-08-21T08:17:07.982Z,0.55
2022-08-21T08:19:34.485Z,1.13
2022-08-21T08:22:01.408Z,0.90
2022-08-21T08:24:27.935Z,0.73
2022-08-21T08:26:55.204Z,0.70
2022-08-21T08:29:22.385Z,0.80
2022-08-21T08:31:48.927Z,0.80
2022-08-21T08:34:24.942Z,1.33
2022-08-21T08:36:52.201Z,0.60
2022-08-21T08:39:26.515Z,0.55
2022-08-21T08:42:33.995Z,0.88
2022-08-21T08:45:06.169Z,0.75
2022-08-21T08:47:34.999Z,0.70
2022-08-21T08:50:05.505Z,0.90
2022-08-21T08:52:34.642Z,1.08
2022-08-21T08:55:10.868Z,0.90
2022-08-21T08:57:38.427Z,0.73
2022-08-21T09:00:08.141Z,0.93
2022-08-21T09:02:34.822Z,0.85
2022-08-21T09:05:01.598Z,0.93
2022-08-21T09:07:52.958Z,0.88
2022-08-21T09:10:28.937Z,0.70
2022-08-21T09:13:15.992Z,1.13
2022-08-21T09:16:01.093Z,0.90
2022-08-21T09:18:35.370Z,0.50
2022-08-21T09:21:10.493Z,0.82
2022-08-21T09:23:44.606Z,0.65
2022-08-21T09:26:15.979Z,0.75
2022-08-21T09:28:43.509Z,0.80
2022-08-21T09:31:17.032Z,0.73
2022-08-21T09:33:43.579Z,0.90
2022-08-21T09:36:10.302Z,0.45
2022-08-21T09:38:38.282Z,0.63
2022-08-21T09:41:09.787Z,0.90
2022-08-21T09:43:36.986Z,0.88
2022-08-21T09:46:10.980Z,0.70
2022-08-21T09:51:09.819Z,0.50
2022-08-21T09:53:43.405Z,0.38
2022-08-21T09:56:54.891Z,0.60
2022-08-21T09:59:27.379Z,0.52
2022-08-21T10:01:54.865Z,0.52
2022-08-21T10:04:30.098Z,0.70
2022-08-21T10:07:07.124Z,0.60
2022-08-21T10:09:33.792Z,0.95
2022-08-21T10:12:11.177Z,0.35
2022-08-21T10:14:56.490Z,0.82
2022-08-21T10:17:34.394Z,0.73
2022-08-21T10:20:05.663Z,0.40
2022-08-21T10:22:32.259Z,0.70
2022-08-21T10:25:17.543Z,0.55
2022-08-21T10:27:51.674Z,0.73
2022-08-21T10:30:29.785Z,0.73
2022-08-21T10:33:24.050Z,0.75
2022-08-21T10:36:10.795Z,0.93
2022-08-21T10:39:02.287Z,0.63
2022-08-21T10:41:46.148Z,0.50
2022-08-21T10:44:25.234Z,0.75
2022-08-21T10:46:57.777Z,0.90
2022-08-21T10:49:30.315Z,0.77
2022-08-21T10:51:59.951Z,0.95
2022-08-21T10:54:37.974Z,0.77
2022-08-21T10:57:09.144Z,0.65
2022-08-21T10:59:43.236Z,0.55
2022-08-21T11:02:09.801Z,0.65
2022-08-21T11:04:49.426Z,0.70
2022-08-21T11:07:35.079Z,0.55
2022-08-21T11:10:24.480Z,0.90
2022-08-21T11:13:18.367Z,0.88
2022-08-21T11:15:57.619Z,0.70
2022-08-21T11:18:27.599Z,0.65
2022-08-21T11:21:13.062Z,0.40
2022-08-21T11:23:42.474Z,0.80
2022-08-21T11:26:13.539Z,0.82
2022-08-21T11:28:45.283Z,0.60
2022-08-21T11:31:22.396Z,0.70
2022-08-21T11:34:02.416Z,1.17
2022-08-21T11:36:32.008Z,0.70
2022-08-21T11:39:03.383Z,0.82
2022-08-21T11:41:32.081Z,0.60
2022-08-21T11:44:14.007Z,0.75
2022-08-21T11:47:02.643Z,0.75
2022-08-21T11:49:35.289Z,0.40
2022-08-21T11:52:01.756Z,0.60
2022-08-21T11:54:39.964Z,0.50
2022-08-21T11:57:09.307Z,0.60
2022-08-21T11:59:54.340Z,0.30
2022-08-21T12:02:22.076Z,0.60
2022-08-21T12:04:51.071Z,0.40
2022-08-21T12:07:29.180Z,0.30
2022-08-21T12:09:56.866Z,0.50
2022-08-21T12:12:31.874Z,0.43
2022-08-21T12:15:08.606Z,0.70
2022-08-21T12:17:39.259Z,0.50
2022-08-21T12:20:34.356Z,0.40
2022-08-21T12:23:07.044Z,0.32
2022-08-21T12:25:42.087Z,0.63
2022-08-21T12:28:16.383Z,0.35
2022-08-21T12:30:44.507Z,0.40
2022-08-21T12:33:23.318Z,0.35
2022-08-21T12:35:50.762Z,0.47
2022-08-21T12:38:33.079Z,0.50
2022-08-21T12:41:05.663Z,0.30
2022-08-21T12:43:32.202Z,0.35
2022-08-21T12:46:01.738Z,0.30
2022-08-21T12:48:32.820Z,0.30
2022-08-21T12:51:12.198Z,0.25
2022-08-21T12:53:41.726Z,0.50
2022-08-21T12:56:13.386Z,0.40
2022-08-21T12:58:46.865Z,0.30
2022-08-21T13:01:39.314Z,0.40
2022-08-21T13:04:09.423Z,0.85
2022-08-21T13:06:40.762Z,0.45
2022-08-21T13:09:09.398Z,0.30
2022-08-21T13:11:40.881Z,0.38
2022-08-21T13:14:11.972Z,0.35
2022-08-21T13:16:38.991Z,0.30
2022-08-21T13:19:08.178Z,0.30
2022-08-21T13:21:36.359Z,0.30
2022-08-21T13:24:41.203Z,0.40
2022-08-21T13:27:17.847Z,0.40
2022-08-21T13:29:44.439Z,0.30
2022-08-21T13:32:22.642Z,0.30
2022-08-21T13:34:49.255Z,0.20
2022-08-21T13:37:20.977Z,0.50
2022-08-21T13:39:52.266Z,0.40
2022-08-21T13:42:20.228Z,0.30
2022-08-21T13:44:47.961Z,0.35
2022-08-21T13:47:15.960Z,0.52
2022-08-21T13:49:44.335Z,0.43
2022-08-21T13:52:20.386Z,0.60
2022-08-21T13:54:53.630Z,0.45
2022-08-21T13:57:26.810Z,0.80
2022-08-21T14:00:10.871Z,0.70
2022-08-21T14:02:40.773Z,0.40
2022-08-21T14:05:08.100Z,0.35
2022-08-21T14:07:40.318Z,0.63
2022-08-21T14:10:23.420Z,0.45
2022-08-21T14:12:59.372Z,0.40
2022-08-21T14:15:29.547Z,0.60
2022-08-21T14:18:08.072Z,0.52
2022-08-21T14:20:36.254Z,0.65
2022-08-21T14:23:03.557Z,0.75
2022-08-21T14:25:37.514Z,0.30
2022-08-21T14:28:10.396Z,0.75
2022-08-21T14:30:38.271Z,0.65
2022-08-21T14:33:08.796Z,0.57
2022-08-21T14:35:35.370Z,0.50
2022-08-21T14:38:01.991Z,0.90
2022-08-21T14:40:29.016Z,0.40
2022-08-21T14:42:58.549Z,0.60
2022-08-21T14:45:29.695Z,0.43
2022-08-21T14:47:56.964Z,0.47
2022-08-21T14:50:23.855Z,0.52
2022-08-21T14:52:54.633Z,0.70
2022-08-21T14:55:22.838Z,0.52
2022-08-21T14:57:51.194Z,1.02
2022-08-21T15:00:19.464Z,0.68
2022-08-21T15:02:46.401Z,0.60
2022-08-21T15:05:13.375Z,0.50
2022-08-21T15:07:41.738Z,0.80
2022-08-21T15:10:09.871Z,0.93
2022-08-21T15:12:36.671Z,0.52
2022-08-21T15:15:03.415Z,0.70
2022-08-21T15:17:29.936Z,0.70
2022-08-21T15:19:56.445Z,0.80
2022-08-21T15:22:22.957Z,0.52
2022-08-21T15:24:54.392Z,0.60
2022-08-21T15:27:20.952Z,0.77
2022-08-21T15:29:47.550Z,1.05
2022-08-21T15:32:18.890Z,0.93
2022-08-21T15:34:45.444Z,0.98
2022-08-21T15:37:12.034Z,1.20
2022-08-21T15:39:41.373Z,0.93
2022-08-21T15:42:10.634Z,0.85
2022-08-21T15:44:41.453Z,1.10
2022-08-21T15:47:11.142Z,0.70
2022-08-21T15:49:37.701Z,1.38
2022-08-21T15:52:04.214Z,1.50
2022-08-21T15:54:31.140Z,0.85
2022-08-21T15:56:57.679Z,0.98
2022-08-21T15:59:24.250Z,0.80
2022-08-21T16:01:51.704Z,0.60
2022-08-21T16:04:24.195Z,0.80
2022-08-21T16:06:53.954Z,0.52
2022-08-21T16:09:23.731Z,0.60
2022-08-21T16:11:50.718Z,0.82
2022-08-21T16:14:17.902Z,0.40
2022-08-21T16:16:44.982Z,0.50
2022-08-21T16:19:12.176Z,0.40
2022-08-21T16:21:38.661Z,0.40
2022-08-21T16:24:05.347Z,0.30
2022-08-21T16:26:32.110Z,0.30
2022-08-21T16:29:01.298Z,0.47
2022-08-21T16:31:28.040Z,0.45
2022-08-21T16:33:57.184Z,0.50
2022-08-21T16:36:26.686Z,0.30
2022-08-21T16:38:54.684Z,0.50
2022-08-21T16:41:23.039Z,0.43
2022-08-21T16:43:50.913Z,0.50
2022-08-21T16:46:18.052Z,0.60
2022-08-21T16:48:47.298Z,0.50
2022-08-21T16:51:14.571Z,0.35
2022-08-21T16:53:41.314Z,0.55
2022-08-21T16:56:08.488Z,0.90
2022-08-21T16:58:36.422Z,0.95
2022-08-21T17:01:08.091Z,0.93
2022-08-21T17:03:36.576Z,0.88
2022-08-21T17:06:03.355Z,1.13
2022-08-21T17:08:29.837Z,0.80
2022-08-21T17:10:56.923Z,0.80
2022-08-21T17:13:23.419Z,2.00
2022-08-21T17:15:49.974Z,0.88
2022-08-21T17:18:18.544Z,0.90
2022-08-21T17:20:45.163Z,0.77
2022-08-21T17:23:11.727Z,1.02
2022-08-21T17:25:40.016Z,0.98
2022-08-21T17:28:07.074Z,1.00
2022-08-21T17:30:33.762Z,1.08
2022-08-21T17:33:00.877Z,1.20
2022-08-21T17:35:27.587Z,1.10
2022-08-21T17:37:54.175Z,1.88
2022-08-21T17:40:21.441Z,3.50
2022-08-21T17:42:48.568Z,3.85
2022-08-21T17:45:17.529Z,2.92
2022-08-21T17:47:44.449Z,2.28
2022-08-21T17:50:12.408Z,2.28
2022-08-21T17:52:41.613Z,3.15
2022-08-21T17:55:08.289Z,2.83
2022-08-21T17:57:35.544Z,4.47
2022-08-21T18:00:02.878Z,2.72
2022-08-21T18:02:30.690Z,3.50
2022-08-21T18:04:57.430Z,2.45
2022-08-21T18:07:32.000Z,3.13
2022-08-21T18:10:00.092Z,7.18
2022-08-21T18:12:26.865Z,2.60
2022-08-21T18:14:53.514Z,1.70
2022-08-21T18:17:21.622Z,2.40
2022-08-21T18:19:49.040Z,2.60
2022-08-21T18:22:16.459Z,1.23
2022-08-21T18:24:43.880Z,1.25
2022-08-21T18:27:10.639Z,1.63
2022-08-21T18:29:47.204Z,1.40
2022-08-21T18:32:25.710Z,1.35
2022-08-21T18:34:58.916Z,1.20
2022-08-21T18:37:25.519Z,1.00
2022-08-21T18:39:55.227Z,1.30
2022-08-21T18:42:28.549Z,1.10
2022-08-21T18:47:28.861Z,1.40
2022-08-21T18:49:55.632Z,1.40
2022-08-21T18:52:22.219Z,1.42
2022-08-21T18:54:54.912Z,1.95
2022-08-21T18:57:28.308Z,1.10
2022-08-21T18:59:54.952Z,1.13
2022-08-21T19:02:21.792Z,1.30
2022-08-21T19:04:50.666Z,1.25
2022-08-21T19:07:18.771Z,1.10
2022-08-21T19:10:01.827Z,1.33
2022-08-21T19:12:32.907Z,1.30
2022-08-21T19:15:00.299Z,1.75
2022-08-21T19:17:27.443Z,1.48
2022-08-21T19:19:55.884Z,1.60
2022-08-21T19:22:22.927Z,1.38
2022-08-21T19:24:49.822Z,0.90
2022-08-21T19:27:16.540Z,1.30
2022-08-21T19:29:43.034Z,1.10
2022-08-21T19:32:10.651Z,1.30
2022-08-21T19:34:37.726Z,1.42
2022-08-21T19:37:06.444Z,1.00
2022-08-21T19:39:39.534Z,1.13
2022-08-21T19:42:10.179Z,0.98
2022-08-21T19:44:37.573Z,1.20
2022-08-21T19:47:10.403Z,1.02
2022-08-21T19:49:37.104Z,1.48
2022-08-21T19:52:12.992Z,0.98
2022-08-21T19:54:40.637Z,1.00
2022-08-21T19:57:09.450Z,1.20
2022-08-21T19:59:36.891Z,1.20
2022-08-21T20:02:04.247Z,1.17
2022-08-21T20:04:31.248Z,1.73
2022-08-21T20:06:57.872Z,1.10
2022-08-21T20:09:24.430Z,1.60
2022-08-21T20:11:54.059Z,1.23
2022-08-21T20:14:22.013Z,1.20
2022-08-21T20:16:52.485Z,1.70
2022-08-21T20:19:19.396Z,1.55
2022-08-21T20:21:45.951Z,1.17
2022-08-21T20:24:14.744Z,1.10
2022-08-21T20:26:42.361Z,1.30
2022-08-21T20:29:16.751Z,1.00
2022-08-21T20:31:50.547Z,1.20
2022-08-21T20:34:17.444Z,1.10
2022-08-21T20:36:44.830Z,1.48
2022-08-21T20:39:14.388Z,1.58
2022-08-21T20:41:41.144Z,1.30
2022-08-21T20:44:10.908Z,1.80
2022-08-21T20:46:39.641Z,1.65
2022-08-21T20:49:09.304Z,1.35
2022-08-21T20:51:39.535Z,1.70
2022-08-21T20:54:18.268Z,1.60
2022-08-21T20:57:00.240Z,1.10
2022-08-21T20:59:33.150Z,0.90
2022-08-21T21:02:20.062Z,1.27
2022-08-21T21:04:51.571Z,0.80
2022-08-21T21:07:39.466Z,1.38
2022-08-21T21:10:08.462Z,1.48
2022-08-21T21:15:27.979Z,1.15
2022-08-21T21:18:02.615Z,1.30
2022-08-21T21:20:45.716Z,1.30
2022-08-21T21:23:19.634Z,1.17
2022-08-21T21:25:53.692Z,1.38
2022-08-21T21:28:26.046Z,1.13
2022-08-21T21:30:57.583Z,1.17
2022-08-21T21:33:24.891Z,1.90
2022-08-21T21:35:54.707Z,1.48
2022-08-21T21:38:27.533Z,1.30
2022-08-21T21:41:12.701Z,1.17
2022-08-21T21:43:42.175Z,1.75
2022-08-21T21:46:14.471Z,1.52
2022-08-21T21:49:00.447Z,1.02
2022-08-21T21:52:02.392Z,0.93
2022-08-21T21:54:52.113Z,0.90
2022-08-21T21:57:36.342Z,1.00
2022-08-21T22:02:51.907Z,1.30
2022-08-21T22:05:22.234Z,1.30
2022-08-21T22:07:52.438Z,1.55
2022-08-21T22:10:30.128Z,1.20
2022-08-21T22:13:25.304Z,1.40
2022-08-21T22:18:22.359Z,1.65
2022-08-21T22:20:57.526Z,1.45
2022-08-21T22:23:28.876Z,1.95
2022-08-21T22:25:59.100Z,1.75
2022-08-21T22:28:27.222Z,1.55
2022-08-21T22:30:53.756Z,1.58
2022-08-21T22:33:25.259Z,1.60
2022-08-21T22:35:54.987Z,2.78
2022-08-21T22:38:27.749Z,2.28
2022-08-21T22:41:15.030Z,2.58
2022-08-21T22:43:55.644Z,2.33
2022-08-21T22:46:25.780Z,2.28
2022-08-21T22:49:01.815Z,2.42
2022-08-21T22:51:34.776Z,1.67
2022-08-21T22:54:02.471Z,1.70
2022-08-21T22:56:35.227Z,2.63
2022-08-21T22:59:04.932Z,2.17
2022-08-21T23:01:37.411Z,1.90
2022-08-21T23:04:12.950Z,1.80
2022-08-21T23:06:59.479Z,2.00
2022-08-21T23:09:29.770Z,2.40
2022-08-21T23:11:58.029Z,1.83
2022-08-21T23:14:25.574Z,2.42
2022-08-21T23:16:54.904Z,2.15
2022-08-21T23:19:30.745Z,2.15
2022-08-21T23:22:13.903Z,2.53
2022-08-21T23:24:46.607Z,1.83
2022-08-21T23:27:42.710Z,1.65
2022-08-21T23:30:12.417Z,2.47
2022-08-21T23:33:00.257Z,1.98
2022-08-21T23:36:04.718Z,1.75
2022-08-21T23:38:43.436Z,2.10
2022-08-21T23:41:34.321Z,2.13
2022-08-21T23:44:00.995Z,2.40
2022-08-21T23:49:19.840Z,3.17
2022-08-21T23:51:58.816Z,1.90
2022-08-21T23:54:38.736Z,2.70
2022-08-21T23:57:11.406Z,2.42
2022-08-21T23:59:56.663Z,2.10
